Time;durP1;ratioP1;P1;durP2;ratioP2;P2;SDS_P1;SDS_P2;PMS_P1;PMS_P2;Temp;Humidity;BMP_temperature;BMP_pressure;BME280_temperature;BME280_humidity;BME280_pressure;Samples;Min_cycle;Max_cycle;Signal;HPM_P1;HPM_P2
2023/12/04 00:01:14;;;;;;;23.48;13.40;;;4.70;52.00;;;;;;5023908;28;20050;-46
2023/12/04 00:03:42;;;;;;;23.48;12.70;;;4.70;51.90;;;;;;5020153;28;20653;-46
2023/12/04 00:06:11;;;;;;;25.30;13.40;;;4.70;51.80;;;;;;5017132;28;20046;-47
2023/12/04 00:08:39;;;;;;;25.00;13.35;;;4.70;51.70;;;;;;5024181;28;20057;-46
2023/12/04 00:11:07;;;;;;;23.20;12.82;;;4.70;51.70;;;;;;5021767;28;20053;-48
2023/12/04 00:13:35;;;;;;;23.50;12.90;;;4.70;51.70;;;;;;5019057;28;20046;-45
2023/12/04 00:16:02;;;;;;;22.83;12.90;;;4.80;51.80;;;;;;5019204;28;20508;-46
2023/12/04 00:18:30;;;;;;;22.95;11.98;;;4.80;51.80;;;;;;5022916;28;20065;-46
2023/12/04 00:20:57;;;;;;;22.63;12.02;;;4.80;51.70;;;;;;5024885;28;20050;-48
2023/12/04 00:23:25;;;;;;;23.08;12.45;;;4.80;51.70;;;;;;5020435;28;20049;-43
2023/12/04 00:25:53;;;;;;;22.42;12.75;;;4.80;51.70;;;;;;5020165;28;20049;-49
2023/12/04 00:28:20;;;;;;;21.75;11.90;;;4.80;51.70;;;;;;5028723;28;20532;-42
2023/12/04 00:30:48;;;;;;;21.17;12.18;;;4.80;51.60;;;;;;5025811;28;20045;-46
2023/12/04 00:33:15;;;;;;;23.08;12.63;;;4.80;51.50;;;;;;5022165;28;20049;-49
2023/12/04 00:35:42;;;;;;;20.73;12.13;;;4.80;51.60;;;;;;5013801;28;20069;-44
2023/12/04 00:38:09;;;;;;;21.73;11.90;;;4.80;51.50;;;;;;5016671;28;20049;-46
2023/12/04 00:40:38;;;;;;;23.90;12.48;;;4.80;51.40;;;;;;5017151;28;20405;-46
2023/12/04 00:43:05;;;;;;;21.88;12.13;;;4.80;51.30;;;;;;5021596;28;20056;-47
2023/12/04 00:45:32;;;;;;;22.67;12.35;;;4.80;51.30;;;;;;5018330;28;20504;-46
2023/12/04 00:48:00;;;;;;;22.35;12.02;;;4.80;51.30;;;;;;5019644;28;20048;-48
2023/12/04 00:50:27;;;;;;;19.23;11.27;;;4.80;51.30;;;;;;5014466;28;20053;-46
2023/12/04 00:52:54;;;;;;;21.08;12.25;;;4.80;51.20;;;;;;5025051;28;20405;-45
2023/12/04 00:55:21;;;;;;;23.45;10.93;;;4.80;51.10;;;;;;5020018;28;20060;-46
2023/12/04 00:57:50;;;;;;;24.50;11.45;;;4.80;51.30;;;;;;5021350;28;20417;-44
2023/12/04 01:00:17;;;;;;;20.23;11.60;;;4.80;51.30;;;;;;5021638;28;20057;-48
2023/12/04 01:02:45;;;;;;;19.50;10.93;;;4.80;51.30;;;;;;5023485;28;20057;-44
2023/12/04 01:05:12;;;;;;;20.30;11.30;;;4.80;51.20;;;;;;5015782;28;20073;-45
2023/12/04 01:07:39;;;;;;;21.27;11.98;;;4.80;51.10;;;;;;5025192;28;20684;-47
2023/12/04 01:10:07;;;;;;;21.35;11.40;;;4.80;51.20;;;;;;5023659;28;20046;-46
2023/12/04 01:12:34;;;;;;;19.02;11.00;;;4.80;51.10;;;;;;5019732;28;20061;-44
2023/12/04 01:15:04;;;;;;;22.08;11.43;;;4.80;51.60;;;;;;5024300;28;20053;-46
2023/12/04 01:17:31;;;;;;;20.10;11.10;;;4.80;51.10;;;;;;5021480;28;20053;-42
2023/12/04 01:19:58;;;;;;;20.35;11.18;;;4.80;51.20;;;;;;5026941;28;20071;-37
2023/12/04 01:22:26;;;;;;;19.50;11.43;;;4.80;51.10;;;;;;5023410;28;20423;-41
2023/12/04 01:24:53;;;;;;;22.63;12.13;;;4.80;50.90;;;;;;5025782;28;20050;-38
2023/12/04 01:27:20;;;;;;;20.45;11.40;;;4.80;50.80;;;;;;5024124;28;20049;-40
2023/12/04 01:29:47;;;;;;;19.40;11.20;;;4.80;50.80;;;;;;5018698;28;20049;-38
2023/12/04 01:32:16;;;;;;;20.33;11.30;;;4.80;50.80;;;;;;5023329;28;20049;-37
2023/12/04 01:34:43;;;;;;;19.90;11.40;;;4.80;50.80;;;;;;5027141;28;20053;-37
2023/12/04 01:37:11;;;;;;;19.63;10.35;;;4.80;50.90;;;;;;5022168;28;20053;-37
2023/12/04 01:39:38;;;;;;;21.73;11.93;;;4.80;50.80;;;;;;5022321;28;20053;-38
2023/12/04 01:42:06;;;;;;;19.02;10.15;;;4.80;50.80;;;;;;5020774;28;20050;-38
2023/12/04 01:44:33;;;;;;;21.08;11.15;;;4.80;50.80;;;;;;5024708;28;20068;-38
2023/12/04 01:47:00;;;;;;;19.33;10.15;;;4.80;50.80;;;;;;5018855;28;20049;-37
2023/12/04 01:49:29;;;;;;;18.48;11.02;;;4.70;50.60;;;;;;5026154;28;20053;-38
2023/12/04 01:51:57;;;;;;;19.98;10.75;;;4.70;50.50;;;;;;5017998;28;20045;-37
2023/12/04 01:54:24;;;;;;;19.65;10.43;;;4.80;50.50;;;;;;5019717;28;20093;-37
2023/12/04 01:56:52;;;;;;;18.88;10.35;;;4.70;50.50;;;;;;5018507;28;20081;-37
2023/12/04 01:59:19;;;;;;;22.38;11.00;;;4.70;50.40;;;;;;5024352;28;20057;-42
2023/12/04 02:01:47;;;;;;;22.67;10.73;;;4.70;50.90;;;;;;5028841;28;20068;-39
2023/12/04 02:04:14;;;;;;;17.95;10.55;;;4.70;50.40;;;;;;5022223;28;20572;-41
2023/12/04 02:06:43;;;;;;;18.98;11.05;;;4.70;50.30;;;;;;5019712;28;20046;-37
2023/12/04 02:09:12;;;;;;;19.88;10.63;;;4.70;50.30;;;;;;5020033;28;20054;-38
2023/12/04 02:11:40;;;;;;;20.25;10.65;;;4.60;50.30;;;;;;5022113;28;20057;-39
2023/12/04 02:14:07;;;;;;;17.70;10.60;;;4.60;50.20;;;;;;5023853;28;20049;-37
2023/12/04 02:16:38;;;;;;;19.23;10.27;;;4.60;50.20;;;;;;5024097;28;20061;-37
2023/12/04 02:19:08;;;;;;;21.80;10.77;;;4.60;50.30;;;;;;5018529;28;20428;-39
2023/12/04 02:21:36;;;;;;;21.63;10.70;;;4.60;50.40;;;;;;5023374;28;20072;-37
2023/12/04 02:24:05;;;;;;;19.23;10.60;;;4.70;50.50;;;;;;5022352;28;20061;-38
2023/12/04 02:26:36;;;;;;;19.70;10.57;;;4.70;50.40;;;;;;5026209;28;20053;-44
2023/12/04 02:29:09;;;;;;;20.13;11.00;;;4.60;50.30;;;;;;5024329;28;20493;-49
2023/12/04 02:31:38;;;;;;;20.90;10.77;;;4.60;50.20;;;;;;5023155;28;20061;-47
2023/12/04 02:34:08;;;;;;;19.75;11.27;;;4.60;50.30;;;;;;5015558;28;20053;-47
2023/12/04 02:36:37;;;;;;;20.60;11.25;;;4.60;50.30;;;;;;5023459;28;20412;-50
2023/12/04 02:39:06;;;;;;;19.67;11.38;;;4.60;50.30;;;;;;5023784;28;20049;-47
2023/12/04 02:41:33;;;;;;;21.00;10.73;;;4.60;50.40;;;;;;5024446;28;20064;-47
2023/12/04 02:44:00;;;;;;;20.40;10.75;;;4.60;50.40;;;;;;5026626;28;20060;-43
2023/12/04 02:46:27;;;;;;;20.05;10.88;;;4.50;50.40;;;;;;5019168;28;20055;-42
2023/12/04 02:48:54;;;;;;;23.15;12.20;;;4.50;50.50;;;;;;5025562;28;20049;-47
2023/12/04 02:51:22;;;;;;;17.92;10.57;;;4.50;50.50;;;;;;5024618;28;20053;-45
2023/12/04 02:53:49;;;;;;;20.10;10.75;;;4.50;50.40;;;;;;5016184;28;20508;-46
2023/12/04 02:56:17;;;;;;;18.35;10.40;;;4.50;50.40;;;;;;5020333;28;20053;-45
2023/12/04 02:58:45;;;;;;;24.63;11.63;;;4.50;50.40;;;;;;5021883;28;20410;-45
2023/12/04 03:01:12;;;;;;;20.25;11.20;;;4.50;50.40;;;;;;5025370;28;20049;-47
2023/12/04 03:03:39;;;;;;;19.48;10.68;;;4.50;50.40;;;;;;5025122;28;20504;-44
2023/12/04 03:06:07;;;;;;;20.85;10.65;;;4.50;50.60;;;;;;5017240;28;20060;-45
2023/12/04 03:08:34;;;;;;;20.52;11.98;;;4.50;50.60;;;;;;5019198;28;20060;-45
2023/12/04 03:11:03;;;;;;;21.42;11.65;;;4.50;50.50;;;;;;5027867;28;20490;-42
2023/12/04 03:13:32;;;;;;;20.10;11.43;;;4.50;50.50;;;;;;5022396;28;20489;-48
2023/12/04 03:15:59;;;;;;;18.63;10.48;;;4.50;50.60;;;;;;5016280;28;20057;-45
2023/12/04 03:18:28;;;;;;;19.63;10.82;;;4.50;50.60;;;;;;5018564;28;20057;-46
2023/12/04 03:20:56;;;;;;;22.40;11.73;;;4.50;50.70;;;;;;5018488;28;20061;-46
2023/12/04 03:23:23;;;;;;;20.05;11.85;;;4.50;50.70;;;;;;5025013;28;20516;-45
2023/12/04 03:25:50;;;;;;;22.77;12.02;;;4.50;50.60;;;;;;5017583;28;20414;-48
2023/12/04 03:28:17;;;;;;;22.10;11.75;;;4.50;50.50;;;;;;5020232;28;20056;-50
2023/12/04 03:30:46;;;;;;;20.35;11.52;;;4.50;50.60;;;;;;5017455;28;20049;-45
2023/12/04 03:33:13;;;;;;;21.42;12.18;;;4.50;50.60;;;;;;5014575;28;20390;-46
2023/12/04 03:35:41;;;;;;;26.20;12.88;;;4.50;50.60;;;;;;5018526;28;20057;-46
2023/12/04 03:38:08;;;;;;;22.33;11.93;;;4.50;50.60;;;;;;5020574;28;20057;-45
2023/12/04 03:40:35;;;;;;;21.38;12.52;;;4.50;50.50;;;;;;5016070;28;20060;-47
2023/12/04 03:43:02;;;;;;;21.42;11.70;;;4.50;50.60;;;;;;5019080;28;20743;-45
2023/12/04 03:45:30;;;;;;;21.10;12.10;;;4.50;50.60;;;;;;5018630;28;20113;-46
2023/12/04 03:47:59;;;;;;;23.02;12.00;;;4.50;50.50;;;;;;5010220;28;20508;-46
2023/12/04 03:50:26;;;;;;;24.35;11.82;;;4.50;50.60;;;;;;5001617;28;20058;-45
2023/12/04 03:52:54;;;;;;;21.00;11.98;;;4.50;50.60;;;;;;5000746;28;20394;-47
2023/12/04 03:55:21;;;;;;;23.15;12.35;;;4.50;51.20;;;;;;4997110;28;20050;-49
2023/12/04 03:57:48;;;;;;;23.30;12.27;;;4.50;50.70;;;;;;4996977;28;20046;-47
2023/12/04 04:00:16;;;;;;;21.80;12.07;;;4.50;50.60;;;;;;4998434;28;20058;-46
2023/12/04 04:02:44;;;;;;;21.60;11.90;;;4.50;50.70;;;;;;4994817;28;20058;-42
2023/12/04 04:05:13;;;;;;;21.63;12.10;;;4.50;50.70;;;;;;4998291;28;20057;-42
2023/12/04 04:07:41;;;;;;;19.70;10.77;;;4.50;51.30;;;;;;4995072;28;20483;-46
2023/12/04 04:10:09;;;;;;;20.58;11.50;;;4.50;50.90;;;;;;5003445;28;20046;-48
2023/12/04 04:12:36;;;;;;;25.30;12.93;;;4.50;50.90;;;;;;5003207;28;20049;-45
2023/12/04 04:15:04;;;;;;;22.67;12.32;;;4.60;50.90;;;;;;4996191;28;20054;-46
2023/12/04 04:17:33;;;;;;;23.83;12.10;;;4.50;50.90;;;;;;5004436;28;20069;-49
2023/12/04 04:20:00;;;;;;;26.23;11.98;;;4.50;50.90;;;;;;4997436;28;20053;-48
2023/12/04 04:22:29;;;;;;;19.13;10.82;;;4.50;50.90;;;;;;4996114;28;20061;-46
2023/12/04 04:24:57;;;;;;;22.98;12.45;;;4.60;50.90;;;;;;4999350;28;20053;-45
2023/12/04 04:27:24;;;;;;;22.48;12.00;;;4.50;50.90;;;;;;5000498;28;20054;-48
2023/12/04 04:29:51;;;;;;;19.92;12.00;;;4.60;50.90;;;;;;5004177;28;20042;-42
2023/12/04 04:32:18;;;;;;;26.10;12.13;;;4.60;51.00;;;;;;5000436;28;20497;-44
2023/12/04 04:34:46;;;;;;;22.13;11.98;;;4.60;51.00;;;;;;5000219;28;20053;-47
2023/12/04 04:37:14;;;;;;;22.15;12.75;;;4.50;50.90;;;;;;5000772;28;20486;-44
2023/12/04 04:39:42;;;;;;;24.45;12.93;;;4.50;50.80;;;;;;5001215;28;20425;-48
2023/12/04 04:42:09;;;;;;;21.05;12.05;;;4.50;50.80;;;;;;4997786;28;20486;-45
2023/12/04 04:44:37;;;;;;;22.75;12.68;;;4.50;50.80;;;;;;4999470;28;20054;-44
2023/12/04 04:47:04;;;;;;;22.38;12.70;;;4.50;51.30;;;;;;5000763;28;21104;-45
2023/12/04 04:49:32;;;;;;;23.20;13.35;;;4.50;50.80;;;;;;4999014;28;20061;-46
2023/12/04 04:51:59;;;;;;;26.60;14.27;;;4.40;50.80;;;;;;5005076;28;20054;-46
2023/12/04 04:54:26;;;;;;;28.75;14.85;;;4.50;50.80;;;;;;4996801;28;20402;-44
2023/12/04 04:56:55;;;;;;;26.35;14.60;;;4.40;50.90;;;;;;5003218;28;20058;-46
2023/12/04 04:59:22;;;;;;;28.65;16.08;;;4.40;51.00;;;;;;5011506;28;20072;-42
2023/12/04 05:01:49;;;;;;;28.83;14.65;;;4.40;51.00;;;;;;5002362;28;20058;-45
2023/12/04 05:04:16;;;;;;;30.05;16.50;;;4.40;51.10;;;;;;4997337;28;20050;-46
2023/12/04 05:06:43;;;;;;;25.92;14.30;;;4.30;51.00;;;;;;4996176;28;20061;-49
2023/12/04 05:09:11;;;;;;;26.90;15.27;;;4.30;51.20;;;;;;5007140;28;20068;-46
2023/12/04 05:11:38;;;;;;;29.10;16.25;;;4.30;51.20;;;;;;4999132;28;20057;-48
2023/12/04 05:14:06;;;;;;;28.77;15.30;;;4.30;51.30;;;;;;5004739;28;20050;-49
2023/12/04 05:16:34;;;;;;;25.92;14.70;;;4.30;51.30;;;;;;4999694;28;20530;-44
2023/12/04 05:19:01;;;;;;;25.52;14.57;;;4.30;51.40;;;;;;5003180;28;20057;-44
2023/12/04 05:21:28;;;;;;;26.52;14.07;;;4.30;51.50;;;;;;5006255;28;20494;-47
2023/12/04 05:23:55;;;;;;;27.90;14.82;;;4.30;51.50;;;;;;5005112;28;20049;-45
2023/12/04 05:26:23;;;;;;;35.85;18.88;;;4.30;51.50;;;;;;5004612;28;20056;-42
2023/12/04 05:28:50;;;;;;;31.42;16.05;;;4.30;51.50;;;;;;5000203;28;20050;-43
2023/12/04 05:31:18;;;;;;;30.20;15.27;;;4.30;51.40;;;;;;4996049;28;20057;-45
2023/12/04 05:33:46;;;;;;;28.88;15.73;;;4.30;51.40;;;;;;4996908;28;20061;-45
2023/12/04 05:36:13;;;;;;;31.83;16.73;;;4.20;51.30;;;;;;4997999;28;20057;-48
2023/12/04 05:38:41;;;;;;;25.00;14.85;;;4.30;51.40;;;;;;5003562;28;20049;-49
2023/12/04 05:41:08;;;;;;;26.85;14.13;;;4.20;51.30;;;;;;5003992;28;20046;-46
2023/12/04 05:43:35;;;;;;;24.75;14.70;;;4.20;51.30;;;;;;4998850;28;20050;-44
2023/12/04 05:46:02;;;;;;;26.90;14.88;;;4.20;51.20;;;;;;4997295;28;20054;-46
2023/12/04 05:48:31;;;;;;;28.08;14.95;;;4.20;51.30;;;;;;5002688;28;20054;-47
2023/12/04 05:50:58;;;;;;;27.48;14.52;;;4.20;51.80;;;;;;5002569;28;20487;-45
2023/12/04 05:53:25;;;;;;;27.42;14.98;;;4.30;51.40;;;;;;5001384;28;20053;-48
2023/12/04 05:55:52;;;;;;;30.55;15.38;;;4.20;51.30;;;;;;4999593;28;20085;-49
2023/12/04 05:58:20;;;;;;;25.42;13.95;;;4.30;51.40;;;;;;5000344;28;20057;-38
2023/12/04 06:00:47;;;;;;;37.97;19.60;;;4.20;51.40;;;;;;4999684;28;20068;-37
2023/12/04 06:03:15;;;;;;;31.92;16.52;;;4.30;51.50;;;;;;5004904;28;20073;-40
2023/12/04 06:05:43;;;;;;;27.30;14.60;;;4.30;51.60;;;;;;5002127;28;20864;-37
2023/12/04 06:08:10;;;;;;;26.75;15.05;;;4.30;51.50;;;;;;5000919;28;20046;-37
2023/12/04 06:10:38;;;;;;;29.70;15.60;;;4.30;51.50;;;;;;5007458;28;20045;-37
2023/12/04 06:13:05;;;;;;;29.90;16.10;;;4.30;51.50;;;;;;4998483;28;20050;-37
2023/12/04 06:15:32;;;;;;;26.38;15.07;;;4.30;51.50;;;;;;5000275;28;20060;-37
2023/12/04 06:17:59;;;;;;;32.00;15.90;;;4.30;51.60;;;;;;5008117;28;20058;-39
2023/12/04 06:20:26;;;;;;;26.50;15.07;;;4.30;51.50;;;;;;5008085;28;20060;-38
2023/12/04 06:22:56;;;;;;;64.05;27.05;;;4.20;51.40;;;;;;5007755;28;20046;-37
2023/12/04 06:25:24;;;;;;;32.40;17.25;;;4.30;51.50;;;;;;5009198;28;20060;-39
2023/12/04 06:27:52;;;;;;;31.92;15.90;;;4.20;51.50;;;;;;5004437;28;20049;-37
2023/12/04 06:30:21;;;;;;;26.42;14.50;;;4.30;51.60;;;;;;5005503;28;20061;-37
2023/12/04 06:32:48;;;;;;;26.75;15.25;;;4.30;51.50;;;;;;4998952;28;20486;-37
2023/12/04 06:35:16;;;;;;;28.55;14.93;;;4.30;51.50;;;;;;5003320;28;20062;-36
2023/12/04 06:37:46;;;;;;;31.15;16.88;;;4.20;51.50;;;;;;5004169;28;20053;-38
2023/12/04 06:40:15;;;;;;;31.63;16.15;;;4.30;51.60;;;;;;4999415;28;20050;-37
2023/12/04 06:42:43;;;;;;;24.95;14.50;;;4.20;51.60;;;;;;5001938;28;20054;-37
2023/12/04 06:45:11;;;;;;;29.85;15.95;;;4.20;51.50;;;;;;4998843;28;20054;-36
2023/12/04 06:47:41;;;;;;;33.65;16.90;;;4.20;51.40;;;;;;4998939;28;20061;-39
2023/12/04 06:50:09;;;;;;;29.02;15.18;;;4.20;51.50;;;;;;4996439;28;20387;-37
2023/12/04 06:52:36;;;;;;;32.40;15.15;;;4.20;51.50;;;;;;4999765;28;20061;-39
2023/12/04 06:55:04;;;;;;;28.48;15.82;;;4.10;51.40;;;;;;4995129;28;20055;-37
2023/12/04 06:57:32;;;;;;;31.25;15.60;;;4.10;51.50;;;;;;5003751;28;20063;-37
2023/12/04 06:59:59;;;;;;;30.75;15.85;;;4.10;51.60;;;;;;5001825;28;20068;-37
2023/12/04 07:02:27;;;;;;;27.15;14.95;;;4.10;51.60;;;;;;5003985;28;20057;-39
2023/12/04 07:04:54;;;;;;;26.60;15.13;;;4.10;51.60;;;;;;4998728;28;20046;-37
2023/12/04 07:07:21;;;;;;;29.48;15.32;;;4.10;51.50;;;;;;5007515;28;20050;-42
2023/12/04 07:09:48;;;;;;;29.55;15.75;;;4.00;51.90;;;;;;4999244;28;20505;-45
2023/12/04 07:12:16;;;;;;;28.02;15.07;;;4.00;51.40;;;;;;5008343;28;20057;-44
2023/12/04 07:14:44;;;;;;;30.10;15.50;;;4.00;51.30;;;;;;5000785;28;20048;-47
2023/12/04 07:17:12;;;;;;;27.65;15.07;;;4.00;51.30;;;;;;5001394;28;20049;-48
2023/12/04 07:19:41;;;;;;;30.67;15.55;;;4.00;51.30;;;;;;5003105;28;20061;-47
2023/12/04 07:22:09;;;;;;;31.40;15.30;;;3.90;51.30;;;;;;5002646;28;20046;-49
2023/12/04 07:24:36;;;;;;;28.23;14.40;;;3.90;51.30;;;;;;5003081;28;20494;-43
2023/12/04 07:27:04;;;;;;;27.60;15.20;;;3.90;51.30;;;;;;5005141;28;20065;-46
2023/12/04 07:29:31;;;;;;;31.45;16.52;;;3.90;51.40;;;;;;5000578;28;20528;-48
2023/12/04 07:32:00;;;;;;;28.70;15.25;;;3.90;51.40;;;;;;5000675;28;20054;-47
2023/12/04 07:34:28;;;;;;;29.65;15.45;;;3.80;51.50;;;;;;4997780;28;20054;-46
2023/12/04 07:36:55;;;;;;;31.70;15.93;;;3.80;52.00;;;;;;4998503;28;20049;-46
2023/12/04 07:39:22;;;;;;;27.52;14.80;;;3.80;51.60;;;;;;5001917;28;20053;-45
2023/12/04 07:41:49;;;;;;;26.98;14.70;;;3.80;51.70;;;;;;5001508;28;20061;-46
2023/12/04 07:44:17;;;;;;;29.42;15.55;;;3.80;51.70;;;;;;4995952;28;20062;-44
2023/12/04 07:46:44;;;;;;;28.90;14.13;;;3.80;51.90;;;;;;4993254;28;20054;-46
2023/12/04 07:49:13;;;;;;;26.50;15.18;;;3.80;52.00;;;;;;5000925;28;20081;-47
2023/12/04 07:51:40;;;;;;;27.55;14.77;;;3.80;51.80;;;;;;5007357;28;20072;-46
2023/12/04 07:54:07;;;;;;;28.52;15.73;;;3.80;51.80;;;;;;5003059;28;20054;-47
2023/12/04 07:56:35;;;;;;;30.63;16.25;;;3.80;51.80;;;;;;5001146;28;20061;-42
2023/12/04 07:59:02;;;;;;;26.73;15.02;;;3.80;51.80;;;;;;5006298;28;20061;-44
2023/12/04 08:01:29;;;;;;;26.30;14.65;;;3.80;51.80;;;;;;4998551;28;20525;-45
2023/12/04 08:03:56;;;;;;;28.85;15.43;;;3.80;51.70;;;;;;4999800;28;20054;-46
2023/12/04 08:06:25;;;;;;;31.83;15.85;;;3.80;51.80;;;;;;4998364;28;20153;-49
2023/12/04 08:08:53;;;;;;;93.53;37.45;;;3.80;51.70;;;;;;5000977;28;20053;-46
2023/12/04 08:11:20;;;;;;;31.70;16.25;;;3.90;51.90;;;;;;5008281;28;20050;-49
2023/12/04 08:13:47;;;;;;;29.30;16.20;;;3.90;51.90;;;;;;5002113;28;20045;-44
2023/12/04 08:16:15;;;;;;;27.10;14.82;;;3.80;51.80;;;;;;4995061;28;20064;-48
2023/12/04 08:18:43;;;;;;;36.03;18.45;;;3.80;51.70;;;;;;5003023;28;20064;-37
2023/12/04 08:21:11;;;;;;;30.63;15.88;;;3.80;51.60;;;;;;4998723;28;20052;-37
2023/12/04 08:23:40;;;;;;;27.23;14.73;;;3.90;51.70;;;;;;5001731;28;20093;-37
2023/12/04 08:26:08;;;;;;;25.35;14.50;;;3.90;51.70;;;;;;4995470;28;20438;-43
2023/12/04 08:28:37;;;;;;;29.98;15.02;;;3.80;51.60;;;;;;4994887;28;20053;-37
2023/12/04 08:31:07;;;;;;;27.15;15.05;;;3.90;51.60;;;;;;5000782;28;20050;-41
2023/12/04 08:33:34;;;;;;;27.63;15.05;;;3.90;51.60;;;;;;5002417;28;20084;-37
2023/12/04 08:36:02;;;;;;;27.98;14.60;;;3.90;51.50;;;;;;4997837;28;20050;-36
2023/12/04 08:38:29;;;;;;;26.40;13.13;;;3.90;51.60;;;;;;4997879;28;20058;-37
2023/12/04 08:40:57;;;;;;;26.85;14.52;;;3.90;51.50;;;;;;4999828;28;20064;-37
2023/12/04 08:43:25;;;;;;;27.13;14.38;;;3.90;51.50;;;;;;5005705;28;20418;-36
2023/12/04 08:45:52;;;;;;;23.05;13.85;;;3.90;51.50;;;;;;4998296;28;20441;-41
2023/12/04 08:48:19;;;;;;;26.20;14.15;;;3.90;51.40;;;;;;4998913;28;20049;-37
2023/12/04 08:50:48;;;;;;;26.08;14.32;;;3.90;51.30;;;;;;5001794;28;20058;-37
2023/12/04 08:53:15;;;;;;;24.08;13.82;;;3.90;51.20;;;;;;4996845;28;20046;-37
2023/12/04 08:55:42;;;;;;;24.80;13.15;;;4.00;51.30;;;;;;4998852;28;20046;-36
2023/12/04 08:58:11;;;;;;;25.05;14.23;;;4.00;51.30;;;;;;4997575;28;20421;-37
2023/12/04 09:00:42;;;;;;;23.17;12.77;;;4.00;51.30;;;;;;5002633;28;20062;-36
2023/12/04 09:03:10;;;;;;;26.00;13.63;;;4.00;51.30;;;;;;4996361;28;21004;-37
2023/12/04 09:05:38;;;;;;;22.25;12.75;;;4.00;51.30;;;;;;4994626;28;20057;-40
2023/12/04 09:08:05;;;;;;;23.98;13.30;;;4.10;51.30;;;;;;5001540;28;20057;-37
2023/12/04 09:10:32;;;;;;;24.98;12.77;;;4.10;51.30;;;;;;4998784;28;20057;-37
2023/12/04 09:13:00;;;;;;;22.45;13.23;;;4.10;51.20;;;;;;4997093;28;20047;-41
2023/12/04 09:15:28;;;;;;;23.50;13.30;;;4.10;51.20;;;;;;5005780;28;20054;-38
2023/12/04 09:17:56;;;;;;;24.73;13.95;;;4.20;51.10;;;;;;4998950;28;20056;-36
2023/12/04 09:20:23;;;;;;;19.70;12.38;;;4.20;51.00;;;;;;5005791;28;20080;-36
2023/12/04 09:22:51;;;;;;;27.13;12.82;;;4.20;50.90;;;;;;5007679;28;20062;-36
2023/12/04 09:25:18;;;;;;;22.38;12.32;;;4.20;50.90;;;;;;5001967;28;20058;-37
2023/12/04 09:27:46;;;;;;;32.08;15.77;;;4.20;50.80;;;;;;5000747;28;20487;-44
2023/12/04 09:30:14;;;;;;;23.33;12.68;;;4.20;50.90;;;;;;5005144;28;20058;-45
2023/12/04 09:32:43;;;;;;;22.70;12.65;;;4.20;50.80;;;;;;5001491;28;21000;-46
2023/12/04 09:35:11;;;;;;;23.75;13.50;;;4.30;50.90;;;;;;5004515;28;20045;-46
2023/12/04 09:37:38;;;;;;;24.67;13.23;;;4.30;50.90;;;;;;5004870;28;20065;-46
2023/12/04 09:40:08;;;;;;;23.70;13.43;;;4.30;50.80;;;;;;5002093;28;20053;-45
2023/12/04 09:42:35;;;;;;;28.33;13.45;;;4.30;50.70;;;;;;5004149;28;20062;-45
2023/12/04 09:45:02;;;;;;;23.73;11.75;;;4.30;50.60;;;;;;5004091;28;20053;-49
2023/12/04 09:47:30;;;;;;;23.85;11.65;;;4.30;50.60;;;;;;4996552;28;20054;-45
2023/12/04 09:50:00;;;;;;;22.25;11.73;;;4.40;50.60;;;;;;5002895;28;20050;-44
2023/12/04 09:52:28;;;;;;;26.13;12.73;;;4.40;50.70;;;;;;5010066;28;20054;-44
2023/12/04 09:54:56;;;;;;;25.02;13.82;;;4.40;50.50;;;;;;5001620;28;20046;-41
2023/12/04 09:57:25;;;;;;;19.48;11.65;;;4.40;50.60;;;;;;4997146;28;20050;-36
2023/12/04 09:59:53;;;;;;;23.73;11.60;;;4.50;50.60;;;;;;5006643;28;20488;-39
2023/12/04 10:02:21;;;;;;;20.88;11.65;;;4.50;50.50;;;;;;5002464;28;20054;-38
2023/12/04 10:04:48;;;;;;;19.58;11.90;;;4.50;51.10;;;;;;4996557;28;20053;-37
2023/12/04 10:07:17;;;;;;;24.13;13.52;;;4.60;50.70;;;;;;5003966;28;20061;-36
2023/12/04 10:09:44;;;;;;;24.45;12.25;;;4.60;50.60;;;;;;5005688;28;20410;-42
2023/12/04 10:12:12;;;;;;;24.98;12.75;;;4.60;50.50;;;;;;5008827;28;20066;-36
2023/12/04 10:14:40;;;;;;;20.48;11.32;;;4.70;50.50;;;;;;5006801;28;20057;-37
2023/12/04 10:17:18;;;;;;;21.80;11.93;;;4.70;50.40;;;;;;5001610;28;20058;-37
2023/12/04 10:19:45;;;;;;;22.73;13.05;;;4.70;50.40;;;;;;5006561;28;20054;-37
2023/12/04 10:22:14;;;;;;;20.17;12.07;;;4.70;50.40;;;;;;5001418;28;20054;-38
2023/12/04 10:24:42;;;;;;;21.85;12.00;;;4.80;50.50;;;;;;5002902;28;20447;-37
2023/12/04 10:27:11;;;;;;;20.23;11.63;;;4.80;50.50;;;;;;5001297;28;20108;-38
2023/12/04 10:29:44;;;;;;;19.27;11.23;;;4.80;50.50;;;;;;5004077;28;20062;-37
2023/12/04 10:32:11;;;;;;;21.45;11.10;;;4.80;50.60;;;;;;5002784;28;20080;-38
2023/12/04 10:34:39;;;;;;;18.38;10.88;;;4.90;50.80;;;;;;4998797;28;20058;-39
2023/12/04 10:37:06;;;;;;;18.95;10.18;;;4.90;50.90;;;;;;5000097;28;20053;-37
2023/12/04 10:39:48;;;;;;;19.75;11.20;;;4.90;50.90;;;;;;5011124;28;20073;-45
2023/12/04 10:42:25;;;;;;;24.05;12.07;;;5.00;51.10;;;;;;5006044;28;20060;-45
2023/12/04 10:44:53;;;;;;;16.98;10.20;;;5.00;51.10;;;;;;5003218;28;20054;-45
2023/12/04 10:47:22;;;;;;;18.35;9.40;;;5.10;51.30;;;;;;5003342;28;20061;-42
2023/12/04 10:49:51;;;;;;;17.60;10.70;;;5.10;51.30;;;;;;5004279;28;20049;-46
2023/12/04 10:52:20;;;;;;;20.67;10.52;;;5.10;51.30;;;;;;5006588;28;20054;-44
2023/12/04 10:54:48;;;;;;;20.13;10.48;;;5.10;51.40;;;;;;5003763;28;20053;-44
2023/12/04 10:57:22;;;;;;;19.70;10.57;;;5.20;51.40;;;;;;5002020;28;20061;-48
2023/12/04 10:59:51;;;;;;;20.17;10.30;;;5.20;51.40;;;;;;5000889;28;20058;-46
2023/12/04 11:02:22;;;;;;;21.50;10.90;;;5.20;51.40;;;;;;4999166;28;20129;-45
2023/12/04 11:04:52;;;;;;;18.48;10.75;;;5.30;51.40;;;;;;5000934;28;20054;-43
2023/12/04 11:07:20;;;;;;;20.90;11.90;;;5.30;51.50;;;;;;5002700;28;20057;-45
2023/12/04 11:09:51;;;;;;;23.35;11.90;;;5.30;51.40;;;;;;5001622;28;20065;-45
2023/12/04 11:12:25;;;;;;;21.63;10.75;;;5.40;51.50;;;;;;5001202;28;20499;-46
2023/12/04 11:14:57;;;;;;;22.25;11.95;;;5.40;51.50;;;;;;4999989;28;20065;-42
2023/12/04 11:17:29;;;;;;;19.77;11.00;;;5.40;51.50;;;;;;4997730;28;20056;-48
2023/12/04 11:20:01;;;;;;;18.15;10.43;;;5.40;51.40;;;;;;5001766;28;20406;-44
2023/12/04 11:22:29;;;;;;;19.00;10.30;;;5.40;51.40;;;;;;4997887;28;20065;-42
2023/12/04 11:24:58;;;;;;;18.50;10.85;;;5.50;51.40;;;;;;4996653;28;20050;-46
2023/12/04 11:27:26;;;;;;;19.35;10.05;;;5.40;51.40;;;;;;5000538;28;20050;-49
2023/12/04 11:29:53;;;;;;;19.35;11.50;;;5.50;51.50;;;;;;4998652;28;20392;-44
2023/12/04 11:32:27;;;;;;;19.77;12.00;;;5.50;51.50;;;;;;4999304;28;20506;-47
2023/12/04 11:34:56;;;;;;;19.05;11.60;;;5.50;51.50;;;;;;4999243;28;20057;-46
2023/12/04 11:37:24;;;;;;;19.23;10.98;;;5.50;51.50;;;;;;5004690;28;20049;-48
2023/12/04 11:39:52;;;;;;;18.30;10.93;;;5.60;51.60;;;;;;5004783;28;20516;-43
2023/12/04 11:42:25;;;;;;;19.35;10.57;;;5.50;51.70;;;;;;5004723;28;20061;-44
2023/12/04 11:44:58;;;;;;;17.97;10.97;;;5.50;52.20;;;;;;5003812;28;20058;-45
2023/12/04 11:47:25;;;;;;;17.80;10.20;;;5.60;52.00;;;;;;4999198;28;20054;-44
2023/12/04 11:49:53;;;;;;;17.77;10.82;;;5.50;52.10;;;;;;5001628;28;20054;-36
2023/12/04 11:52:34;;;;;;;18.77;10.85;;;5.50;52.20;;;;;;4999602;28;20058;-37
2023/12/04 11:55:05;;;;;;;17.33;10.32;;;5.50;52.50;;;;;;4996899;28;20047;-37
2023/12/04 11:57:36;;;;;;;20.70;11.07;;;5.50;52.60;;;;;;5006102;28;20056;-37
2023/12/04 12:00:16;;;;;;;24.23;11.65;;;5.50;52.80;;;;;;5008462;28;20054;-36
2023/12/04 12:02:50;;;;;;;21.40;11.00;;;5.50;53.00;;;;;;5001989;28;20060;-36
2023/12/04 12:05:17;;;;;;;23.70;11.10;;;5.50;53.10;;;;;;4995375;28;20057;-37
2023/12/04 12:07:45;;;;;;;21.17;11.63;;;5.50;53.20;;;;;;5006681;28;20057;-37
2023/12/04 12:10:13;;;;;;;24.02;11.50;;;5.40;53.30;;;;;;5002977;28;20054;-38
2023/12/04 12:12:42;;;;;;;22.60;12.48;;;5.40;53.40;;;;;;5010114;28;20061;-36
2023/12/04 12:15:10;;;;;;;22.65;12.32;;;5.40;53.50;;;;;;5003587;28;20053;-37
2023/12/04 12:17:39;;;;;;;24.75;13.23;;;5.40;53.40;;;;;;4997608;28;20065;-36
2023/12/04 12:20:07;;;;;;;28.13;13.43;;;5.40;53.30;;;;;;5000116;28;20045;-37
2023/12/04 12:22:35;;;;;;;22.85;13.23;;;5.40;53.30;;;;;;5002193;28;20077;-36
2023/12/04 12:25:06;;;;;;;25.45;13.05;;;5.30;53.20;;;;;;5009049;28;20046;-36
2023/12/04 12:27:33;;;;;;;21.33;12.70;;;5.30;53.20;;;;;;5005995;28;20398;-38
2023/12/04 12:30:03;;;;;;;22.88;12.98;;;5.30;53.20;;;;;;5004709;28;20054;-37
2023/12/04 12:32:31;;;;;;;20.15;12.20;;;5.30;53.30;;;;;;5000402;28;20399;-37
2023/12/04 12:34:58;;;;;;;24.40;13.15;;;5.20;53.30;;;;;;5012183;28;20053;-36
2023/12/04 12:37:26;;;;;;;24.05;13.07;;;5.20;53.40;;;;;;5006110;28;20050;-38
2023/12/04 12:39:53;;;;;;;23.23;13.10;;;5.20;53.50;;;;;;5005695;28;20054;-36